createdAt,value
2018-06-27T00:00:43.425Z,18.37
2018-06-27T00:03:11.064Z,17.17
2018-06-27T00:05:38.552Z,15.77
2018-06-27T00:08:06.050Z,17.90
2018-06-27T00:10:33.492Z,17.00
2018-06-27T00:13:01.070Z,16.40
2018-06-27T00:15:28.630Z,16.70
2018-06-27T00:17:56.100Z,17.10
2018-06-27T00:20:23.766Z,17.97
2018-06-27T00:22:51.824Z,17.47
2018-06-27T00:25:19.459Z,17.40
2018-06-27T00:27:47.005Z,17.53
2018-06-27T00:30:14.499Z,17.57
2018-06-27T00:32:41.947Z,17.33
2018-06-27T00:35:10.244Z,15.37
2018-06-27T00:37:37.708Z,17.40
2018-06-27T00:40:05.367Z,18.53
2018-06-27T00:42:32.849Z,17.77
2018-06-27T00:45:00.338Z,18.07
2018-06-27T00:47:27.792Z,16.97
2018-06-27T00:49:55.344Z,17.77
2018-06-27T00:52:22.839Z,18.80
2018-06-27T00:54:50.516Z,16.30
2018-06-27T00:57:18.014Z,17.50
2018-06-27T00:59:45.516Z,16.23
2018-06-27T01:02:13.043Z,18.60
2018-06-27T01:04:40.529Z,18.23
2018-06-27T01:07:08.111Z,17.93
2018-06-27T01:09:35.637Z,17.50
2018-06-27T01:12:03.121Z,18.23
2018-06-27T01:14:30.585Z,18.80
2018-06-27T01:16:58.068Z,19.37
2018-06-27T01:19:25.508Z,19.87
2018-06-27T01:21:53.024Z,17.83
2018-06-27T01:24:20.535Z,20.23
2018-06-27T01:26:48.210Z,20.47
2018-06-27T01:29:15.685Z,18.97
2018-06-27T01:31:43.163Z,19.77
2018-06-27T01:34:10.664Z,20.47
2018-06-27T01:36:38.188Z,20.40
2018-06-27T01:39:07.487Z,20.93
2018-06-27T01:41:35.007Z,21.03
2018-06-27T01:44:02.455Z,22.97
2018-06-27T01:46:29.943Z,22.63
2018-06-27T01:48:57.460Z,21.40
2018-06-27T01:51:24.992Z,21.67
2018-06-27T01:53:52.443Z,21.17
2018-06-27T01:56:20.067Z,21.87
2018-06-27T01:58:47.520Z,22.63
2018-06-27T02:01:19.801Z,21.33
2018-06-27T02:03:48.316Z,21.40
2018-06-27T02:06:15.744Z,22.40
2018-06-27T02:08:43.174Z,21.43
2018-06-27T02:11:10.639Z,20.97
2018-06-27T02:13:38.073Z,19.27
2018-06-27T02:16:05.632Z,21.90
2018-06-27T02:18:33.163Z,22.33
2018-06-27T02:21:00.603Z,21.33
2018-06-27T02:23:28.124Z,22.07
2018-06-27T02:25:55.631Z,22.23
2018-06-27T02:28:23.141Z,22.57
2018-06-27T02:30:50.635Z,22.40
2018-06-27T02:33:23.718Z,24.30
2018-06-27T02:35:51.222Z,22.70
2018-06-27T02:38:18.689Z,21.47
2018-06-27T02:40:46.882Z,22.33
2018-06-27T02:43:14.376Z,20.37
2018-06-27T02:45:41.869Z,20.70
2018-06-27T02:48:09.308Z,20.30
2018-06-27T02:50:36.890Z,21.10
2018-06-27T02:53:04.820Z,23.10
2018-06-27T02:55:32.331Z,20.80
2018-06-27T02:57:59.796Z,19.97
2018-06-27T03:00:27.328Z,21.43
2018-06-27T03:02:54.787Z,18.57
2018-06-27T03:05:22.211Z,18.90
2018-06-27T03:07:49.676Z,21.30
2018-06-27T03:10:17.138Z,19.90
2018-06-27T03:12:44.620Z,19.37
2018-06-27T03:15:12.040Z,18.90
2018-06-27T03:17:40.237Z,19.13
2018-06-27T03:20:07.765Z,19.53
2018-06-27T03:22:35.569Z,17.53
2018-06-27T03:25:03.083Z,19.00
2018-06-27T03:27:30.573Z,19.87
2018-06-27T03:29:58.079Z,18.27
2018-06-27T03:32:26.008Z,16.83
2018-06-27T03:34:53.484Z,18.57
2018-06-27T03:37:21.003Z,19.40
2018-06-27T03:39:48.716Z,19.10
2018-06-27T03:42:16.265Z,19.50
2018-06-27T03:44:43.712Z,18.57
2018-06-27T03:47:11.152Z,19.30
2018-06-27T03:49:38.616Z,21.00
2018-06-27T03:52:06.268Z,19.00
2018-06-27T03:54:33.699Z,19.60
2018-06-27T03:57:01.645Z,18.73
2018-06-27T03:59:29.082Z,20.03
2018-06-27T04:01:56.731Z,19.20
2018-06-27T04:04:24.204Z,18.57
2018-06-27T04:06:51.744Z,19.30
2018-06-27T04:09:19.208Z,16.10
2018-06-27T04:11:46.711Z,16.70
2018-06-27T04:14:14.268Z,18.67
2018-06-27T04:16:41.683Z,17.97
2018-06-27T04:19:09.220Z,17.90
2018-06-27T04:21:36.613Z,17.83
2018-06-27T04:24:04.080Z,15.73
2018-06-27T04:26:31.488Z,17.23
2018-06-27T04:28:58.988Z,16.40
2018-06-27T04:31:26.403Z,16.33
2018-06-27T04:33:53.964Z,16.10
2018-06-27T04:36:21.380Z,16.70
2018-06-27T04:38:48.891Z,16.83
2018-06-27T04:41:16.420Z,17.70
2018-06-27T04:43:43.843Z,19.53
2018-06-27T04:46:11.352Z,20.80
2018-06-27T04:48:38.877Z,20.63
2018-06-27T04:51:06.378Z,18.33
2018-06-27T04:53:33.819Z,19.87
2018-06-27T04:56:01.281Z,21.30
2018-06-27T04:58:28.753Z,20.87
2018-06-27T05:00:56.523Z,23.50
2018-06-27T05:03:24.055Z,23.67
2018-06-27T05:05:51.520Z,23.77
2018-06-27T05:08:18.951Z,21.13
2018-06-27T05:10:46.363Z,18.60
2018-06-27T05:13:13.884Z,23.60
2018-06-27T05:15:41.356Z,22.83
2018-06-27T05:18:08.934Z,27.10
2018-06-27T05:20:36.434Z,21.20
2018-06-27T05:23:04.207Z,25.37
2018-06-27T05:25:31.749Z,26.73
2018-06-27T05:27:59.176Z,26.80
2018-06-27T05:30:26.747Z,25.90
2018-06-27T05:32:54.192Z,26.87
2018-06-27T05:35:21.628Z,25.13
2018-06-27T05:37:49.585Z,27.60
2018-06-27T05:40:17.008Z,26.07
2018-06-27T05:42:44.491Z,27.40
2018-06-27T05:45:11.939Z,28.30
2018-06-27T05:47:39.360Z,28.47
2018-06-27T05:50:06.799Z,28.93
2018-06-27T05:52:34.223Z,35.47
2018-06-27T05:55:07.159Z,33.13
2018-06-27T05:57:34.694Z,34.10
2018-06-27T06:00:02.701Z,26.07
2018-06-27T06:02:30.381Z,37.77
2018-06-27T06:04:57.867Z,27.33
2018-06-27T06:07:25.563Z,31.30
2018-06-27T06:09:53.181Z,36.03
2018-06-27T06:12:20.661Z,36.50
2018-06-27T06:14:48.525Z,24.67
2018-06-27T06:17:15.960Z,38.70
2018-06-27T06:19:43.507Z,41.50
2018-06-27T06:22:11.040Z,39.07
2018-06-27T06:24:40.804Z,39.10
2018-06-27T06:27:09.209Z,37.63
2018-06-27T06:29:36.740Z,36.97
2018-06-27T06:32:04.235Z,34.70
2018-06-27T06:34:31.737Z,28.17
2018-06-27T06:36:59.299Z,35.90
2018-06-27T06:39:27.077Z,36.30
2018-06-27T06:41:54.476Z,40.07
2018-06-27T06:44:21.987Z,40.50
2018-06-27T06:46:49.435Z,35.23
2018-06-27T06:49:16.890Z,32.43
2018-06-27T06:51:44.479Z,34.10
2018-06-27T06:54:11.944Z,35.57
2018-06-27T06:56:39.380Z,34.67
2018-06-27T06:59:06.868Z,32.07
2018-06-27T07:01:34.295Z,33.10
2018-06-27T07:04:01.772Z,33.60
2018-06-27T07:06:29.224Z,33.10
2018-06-27T07:08:56.668Z,27.03
2018-06-27T07:11:24.149Z,32.70
2018-06-27T07:13:51.652Z,27.47
2018-06-27T07:16:19.079Z,32.00
2018-06-27T07:18:47.200Z,33.70
2018-06-27T07:21:14.638Z,31.73
2018-06-27T07:23:42.101Z,32.60
2018-06-27T07:26:09.600Z,33.93
2018-06-27T07:28:37.033Z,32.40
2018-06-27T07:31:04.944Z,29.67
2018-06-27T07:33:32.426Z,29.10
2018-06-27T07:35:59.861Z,29.33
2018-06-27T07:38:27.260Z,26.80
2018-06-27T07:40:54.709Z,27.93
2018-06-27T07:43:23.025Z,28.17
2018-06-27T07:45:50.516Z,30.20
2018-06-27T07:48:17.975Z,28.60
2018-06-27T07:50:45.408Z,27.27
2018-06-27T07:53:12.913Z,26.67
2018-06-27T07:55:40.800Z,28.60
2018-06-27T07:58:08.229Z,25.80
2018-06-27T08:00:35.743Z,27.60
2018-06-27T08:03:03.229Z,27.40
2018-06-27T08:05:30.709Z,26.23
2018-06-27T08:07:58.149Z,25.40
2018-06-27T08:10:25.563Z,23.27
2018-06-27T08:12:53.086Z,23.73
2018-06-27T08:15:20.560Z,24.33
2018-06-27T08:17:48.071Z,24.33
2018-06-27T08:20:15.484Z,21.80
2018-06-27T08:22:43.104Z,23.13
2018-06-27T08:25:10.539Z,22.10
2018-06-27T08:27:37.987Z,22.90
2018-06-27T08:30:05.619Z,21.63
2018-06-27T08:32:33.224Z,21.40
2018-06-27T08:35:00.740Z,21.83
2018-06-27T08:37:28.499Z,21.10
2018-06-27T08:39:55.979Z,22.10
2018-06-27T08:42:23.434Z,23.63
2018-06-27T08:44:51.011Z,21.00
2018-06-27T08:47:18.687Z,23.27
2018-06-27T08:49:46.467Z,21.33
2018-06-27T08:52:13.896Z,22.80
2018-06-27T08:54:45.832Z,22.40
2018-06-27T08:57:14.468Z,21.67
2018-06-27T08:59:42.103Z,23.77
2018-06-27T09:02:09.507Z,20.73
2018-06-27T09:04:36.940Z,19.00
2018-06-27T09:07:04.799Z,20.40
2018-06-27T09:09:32.240Z,19.50
2018-06-27T09:11:59.957Z,18.37
2018-06-27T09:14:27.380Z,21.60
2018-06-27T09:16:54.852Z,21.23
2018-06-27T09:19:22.387Z,21.40
2018-06-27T09:21:49.827Z,19.80
2018-06-27T09:24:17.947Z,20.50
2018-06-27T09:26:45.452Z,17.43
2018-06-27T09:29:12.854Z,20.30
2018-06-27T09:31:40.380Z,20.60
2018-06-27T09:34:07.811Z,18.93
2018-06-27T09:36:35.665Z,19.67
2018-06-27T09:39:05.957Z,19.50
2018-06-27T09:41:33.372Z,19.50
2018-06-27T09:44:00.859Z,15.67
2018-06-27T09:46:28.301Z,18.97
2018-06-27T09:48:56.021Z,16.80
2018-06-27T09:51:23.504Z,20.50
2018-06-27T09:53:50.936Z,20.17
2018-06-27T09:56:18.439Z,20.63
2018-06-27T09:58:45.872Z,17.60
2018-06-27T10:01:13.835Z,18.50
2018-06-27T10:03:41.254Z,17.87
2018-06-27T10:06:08.768Z,18.07
2018-06-27T10:08:36.169Z,18.90
2018-06-27T10:11:03.671Z,19.47
2018-06-27T10:13:31.081Z,17.40
2018-06-27T10:15:58.537Z,19.67
2018-06-27T10:18:26.072Z,15.60
2018-06-27T10:20:53.501Z,15.67
2018-06-27T10:23:20.931Z,16.90
2018-06-27T10:25:48.388Z,15.60
2018-06-27T10:28:15.796Z,15.97
2018-06-27T10:30:43.213Z,13.83
2018-06-27T10:33:12.024Z,14.43
2018-06-27T10:35:39.489Z,15.03
2018-06-27T10:38:06.975Z,15.10
2018-06-27T10:40:34.374Z,13.17
2018-06-27T10:43:01.878Z,13.70
2018-06-27T10:45:29.249Z,15.30
2018-06-27T10:47:56.718Z,14.00
2018-06-27T10:50:24.107Z,12.80
2018-06-27T10:52:51.656Z,11.03
2018-06-27T10:55:20.594Z,8.73
2018-06-27T10:57:48.103Z,6.80
2018-06-27T11:00:15.541Z,8.13
2018-06-27T11:02:42.960Z,10.83
2018-06-27T11:05:10.584Z,7.37
2018-06-27T11:07:38.029Z,6.53
2018-06-27T11:10:05.615Z,5.33
2018-06-27T11:12:33.019Z,5.70
2018-06-27T11:15:00.400Z,7.13
2018-06-27T11:17:28.120Z,7.77
2018-06-27T11:19:55.559Z,5.80
2018-06-27T11:22:22.994Z,5.17
2018-06-27T11:24:50.392Z,4.90
2018-06-27T11:27:17.819Z,5.37
2018-06-27T11:29:45.282Z,4.97
2018-06-27T11:32:12.815Z,5.30
2018-06-27T11:34:40.295Z,4.87
2018-06-27T11:37:07.697Z,5.77
2018-06-27T11:39:35.088Z,5.80
2018-06-27T11:42:02.980Z,5.83
2018-06-27T11:44:30.506Z,5.77
2018-06-27T11:46:57.918Z,5.00
2018-06-27T11:49:25.371Z,5.97
2018-06-27T11:51:52.859Z,4.90
2018-06-27T11:54:20.285Z,5.13
2018-06-27T11:56:47.708Z,4.97
2018-06-27T11:59:15.124Z,5.03
2018-06-27T12:01:42.559Z,5.00
2018-06-27T12:04:10.040Z,4.60
2018-06-27T12:06:37.420Z,5.80
2018-06-27T12:09:07.516Z,6.50
2018-06-27T12:11:34.971Z,5.13
2018-06-27T12:14:03.259Z,4.20
2018-06-27T12:16:30.675Z,5.17
2018-06-27T12:18:58.066Z,4.30
2018-06-27T12:21:25.448Z,4.20
2018-06-27T12:23:52.904Z,5.00
2018-06-27T12:26:20.252Z,4.60
2018-06-27T12:28:47.639Z,4.90
2018-06-27T12:31:15.100Z,6.33
2018-06-27T12:33:42.528Z,5.50
2018-06-27T12:36:09.921Z,4.77
2018-06-27T12:38:37.384Z,4.10
2018-06-27T12:41:04.753Z,4.50
2018-06-27T12:43:32.235Z,4.97
2018-06-27T12:46:00.220Z,4.40
2018-06-27T12:48:27.624Z,4.00
2018-06-27T12:50:55.260Z,3.90
2018-06-27T12:53:22.810Z,4.33
2018-06-27T12:55:50.357Z,3.40
2018-06-27T12:58:18.436Z,3.60
2018-06-27T13:00:45.888Z,3.80
2018-06-27T13:03:13.271Z,4.30
2018-06-27T13:05:40.791Z,3.80
2018-06-27T13:08:08.245Z,4.27
2018-06-27T13:10:35.659Z,3.80
2018-06-27T13:13:03.256Z,3.80
2018-06-27T13:15:30.688Z,4.40
2018-06-27T13:17:58.114Z,3.73
2018-06-27T13:20:25.691Z,4.20
2018-06-27T13:22:54.265Z,3.93
2018-06-27T13:25:21.800Z,3.17
2018-06-27T13:27:49.285Z,3.60
2018-06-27T13:30:16.883Z,4.13
2018-06-27T13:32:44.480Z,3.33
2018-06-27T13:35:12.073Z,3.07
2018-06-27T13:37:39.723Z,3.10
2018-06-27T13:40:07.400Z,3.30
2018-06-27T13:42:35.284Z,3.00
2018-06-27T13:45:14.399Z,2.93
2018-06-27T13:50:45.060Z,3.43
2018-06-27T13:53:12.361Z,3.00
2018-06-27T13:55:40.110Z,3.00
2018-06-27T13:58:07.398Z,2.97
2018-06-27T14:00:34.729Z,2.90
2018-06-27T14:03:02.030Z,3.00
2018-06-27T14:05:29.353Z,2.93
2018-06-27T14:07:56.754Z,2.93
2018-06-27T14:10:24.072Z,2.43
2018-06-27T14:12:51.382Z,3.27
2018-06-27T14:15:18.693Z,2.60
2018-06-27T14:17:46.414Z,2.90
2018-06-27T14:20:13.745Z,2.70
2018-06-27T14:22:41.073Z,2.40
2018-06-27T14:25:08.405Z,2.30
2018-06-27T14:27:35.771Z,2.60
2018-06-27T14:30:03.297Z,2.80
2018-06-27T14:32:30.765Z,2.40
2018-06-27T14:34:58.094Z,2.30
2018-06-27T14:37:25.438Z,3.00
2018-06-27T14:39:52.906Z,2.27
2018-06-27T14:42:20.277Z,2.80
2018-06-27T14:44:47.598Z,2.70
2018-06-27T14:47:14.913Z,2.50
2018-06-27T14:49:42.257Z,3.20
2018-06-27T14:52:09.602Z,2.70
2018-06-27T14:54:36.906Z,2.97
2018-06-27T14:57:04.250Z,2.33
2018-06-27T14:59:31.662Z,2.77
2018-06-27T15:01:59.089Z,2.40
2018-06-27T15:04:26.603Z,2.40
2018-06-27T15:06:54.093Z,2.30
2018-06-27T15:09:21.419Z,2.13
2018-06-27T15:11:48.726Z,2.20
2018-06-27T15:14:16.079Z,2.33
2018-06-27T15:16:43.465Z,2.27
2018-06-27T15:19:10.778Z,2.17
2018-06-27T15:21:38.366Z,2.13
2018-06-27T15:24:05.885Z,2.40
2018-06-27T15:26:33.245Z,2.30
2018-06-27T15:29:00.597Z,1.87
2018-06-27T15:31:27.907Z,2.20
2018-06-27T15:33:55.213Z,2.10
2018-06-27T15:36:22.559Z,2.00
2018-06-27T15:38:49.873Z,1.90
2018-06-27T15:41:17.389Z,1.97
2018-06-27T15:43:44.702Z,2.30
2018-06-27T15:46:12.360Z,2.10
2018-06-27T15:48:39.781Z,1.97
2018-06-27T15:51:07.270Z,1.87
2018-06-27T15:53:34.881Z,2.20
2018-06-27T15:56:02.186Z,1.83
2018-06-27T15:58:29.619Z,1.60
2018-06-27T16:00:57.157Z,1.63
2018-06-27T16:03:24.555Z,2.07
2018-06-27T16:05:52.903Z,2.00
2018-06-27T16:08:20.460Z,1.90
2018-06-27T16:10:47.829Z,2.00
2018-06-27T16:13:15.155Z,1.73
2018-06-27T16:15:42.710Z,1.90
2018-06-27T16:18:10.101Z,2.03
2018-06-27T16:20:37.475Z,2.23
2018-06-27T16:23:04.879Z,1.53
2018-06-27T16:25:32.236Z,2.00
2018-06-27T16:27:59.588Z,2.10
2018-06-27T16:30:27.655Z,2.03
2018-06-27T16:32:55.310Z,2.37
2018-06-27T16:35:22.730Z,1.63
2018-06-27T16:37:50.095Z,2.20
2018-06-27T16:40:17.478Z,1.70
2018-06-27T16:42:45.500Z,1.90
2018-06-27T16:45:12.861Z,2.10
2018-06-27T16:47:40.258Z,2.07
2018-06-27T16:50:08.126Z,2.20
2018-06-27T16:52:35.434Z,1.90
2018-06-27T16:55:02.859Z,1.73
2018-06-27T16:57:30.292Z,1.97
2018-06-27T16:59:57.750Z,2.00
2018-06-27T17:02:25.101Z,1.90
2018-06-27T17:04:52.510Z,2.97
2018-06-27T17:07:19.841Z,1.67
2018-06-27T17:09:47.210Z,1.80
2018-06-27T17:12:14.698Z,1.80
2018-06-27T17:14:42.180Z,2.37
2018-06-27T17:17:09.517Z,2.73
2018-06-27T17:19:36.899Z,1.53
2018-06-27T17:22:04.305Z,1.80
2018-06-27T17:24:31.681Z,2.10
2018-06-27T17:26:59.106Z,1.70
2018-06-27T17:29:26.446Z,1.90
2018-06-27T17:31:53.866Z,1.90
2018-06-27T17:34:22.875Z,1.93
2018-06-27T17:36:50.286Z,1.83
2018-06-27T17:39:18.569Z,1.60
2018-06-27T17:41:46.054Z,1.90
2018-06-27T17:44:13.486Z,3.50
2018-06-27T17:46:40.825Z,2.90
2018-06-27T17:49:08.191Z,1.90
2018-06-27T17:51:35.544Z,1.67
2018-06-27T17:54:02.888Z,1.70
2018-06-27T17:56:30.256Z,1.50
2018-06-27T17:58:57.582Z,1.60
2018-06-27T18:01:25.002Z,1.40
2018-06-27T18:03:52.423Z,1.67
2018-06-27T18:06:19.757Z,1.30
2018-06-27T18:08:47.198Z,2.73
2018-06-27T18:11:14.583Z,1.87
2018-06-27T18:13:41.903Z,2.07
2018-06-27T18:16:09.261Z,2.10
2018-06-27T18:18:37.315Z,1.80
2018-06-27T18:21:04.962Z,1.63
2018-06-27T18:23:32.289Z,6.23
2018-06-27T18:25:59.595Z,2.20
2018-06-27T18:28:26.959Z,1.60
2018-06-27T18:30:54.909Z,1.90
2018-06-27T18:33:22.338Z,5.40
2018-06-27T18:35:49.963Z,8.57
2018-06-27T18:38:17.420Z,2.10
2018-06-27T18:40:44.892Z,1.70
2018-06-27T18:43:12.367Z,1.70
2018-06-27T18:45:40.047Z,1.40
2018-06-27T18:48:07.451Z,1.83
2018-06-27T18:50:34.870Z,1.73
2018-06-27T18:53:02.406Z,1.80
2018-06-27T18:55:29.789Z,1.90
2018-06-27T18:57:57.143Z,1.50
2018-06-27T19:00:24.437Z,1.60
2018-06-27T19:02:51.886Z,1.40
2018-06-27T19:05:19.223Z,3.17
2018-06-27T19:07:46.607Z,1.90
2018-06-27T19:10:14.022Z,1.57
2018-06-27T19:12:41.478Z,2.10
2018-06-27T19:15:08.843Z,1.60
2018-06-27T19:17:36.259Z,2.00
2018-06-27T19:20:03.981Z,1.60
2018-06-27T19:22:31.453Z,1.73
2018-06-27T19:24:58.818Z,1.60
2018-06-27T19:27:26.197Z,1.70
2018-06-27T19:29:53.799Z,1.73
2018-06-27T19:32:21.978Z,1.60
2018-06-27T19:34:49.442Z,6.67
2018-06-27T19:37:17.042Z,2.50
2018-06-27T19:39:44.430Z,1.73
2018-06-27T19:42:11.806Z,1.67
2018-06-27T19:44:39.125Z,2.10
2018-06-27T19:47:06.463Z,1.50
2018-06-27T19:49:34.058Z,1.50
2018-06-27T19:52:01.395Z,2.07
2018-06-27T19:54:28.762Z,1.90
2018-06-27T19:56:56.198Z,1.90
2018-06-27T19:59:23.538Z,1.60
2018-06-27T20:01:51.181Z,1.70
2018-06-27T20:04:18.606Z,2.20
2018-06-27T20:06:45.940Z,2.50
2018-06-27T20:09:15.705Z,2.60
2018-06-27T20:11:43.212Z,3.10
2018-06-27T20:14:10.802Z,3.10
2018-06-27T20:16:38.097Z,5.63
2018-06-27T20:19:06.007Z,5.40
2018-06-27T20:21:33.794Z,5.77
2018-06-27T20:24:01.117Z,6.93
2018-06-27T20:26:28.453Z,6.63
2018-06-27T20:28:56.107Z,7.13
2018-06-27T20:31:23.562Z,7.43
2018-06-27T20:33:51.425Z,7.87
2018-06-27T20:36:18.774Z,7.73
2018-06-27T20:38:46.187Z,9.50
2018-06-27T20:41:13.509Z,8.90
2018-06-27T20:43:41.102Z,10.23
2018-06-27T20:46:08.489Z,10.10
2018-06-27T20:48:36.009Z,10.67
2018-06-27T20:51:04.511Z,9.00
2018-06-27T20:53:31.877Z,10.70
2018-06-27T20:55:59.674Z,11.40
2018-06-27T20:58:27.018Z,11.57
2018-06-27T21:00:55.556Z,10.97
2018-06-27T21:03:23.166Z,11.90
2018-06-27T21:05:50.497Z,11.87
2018-06-27T21:08:17.821Z,11.40
2018-06-27T21:10:45.207Z,12.40
2018-06-27T21:13:12.513Z,11.27
2018-06-27T21:15:40.179Z,11.80
2018-06-27T21:18:08.381Z,12.30
2018-06-27T21:20:36.125Z,11.73
2018-06-27T21:23:03.823Z,11.60
2018-06-27T21:25:31.198Z,11.23
2018-06-27T21:27:58.510Z,12.30
2018-06-27T21:30:25.838Z,13.23
2018-06-27T21:32:53.209Z,13.10
2018-06-27T21:35:20.608Z,12.67
2018-06-27T21:37:48.237Z,11.57
2018-06-27T21:40:15.617Z,12.20
2018-06-27T21:42:42.981Z,13.00
2018-06-27T21:45:10.445Z,13.03
2018-06-27T21:47:37.766Z,12.50
2018-06-27T21:50:05.550Z,15.10
2018-06-27T21:52:32.867Z,14.83
2018-06-27T21:55:00.201Z,13.00
2018-06-27T21:57:27.538Z,15.10
2018-06-27T21:59:54.998Z,12.30
2018-06-27T22:02:22.358Z,12.63
2018-06-27T22:04:49.749Z,12.63
2018-06-27T22:07:17.138Z,13.60
2018-06-27T22:09:44.559Z,13.90
2018-06-27T22:12:11.904Z,14.73
2018-06-27T22:14:39.225Z,14.23
2018-06-27T22:17:07.622Z,13.63
2018-06-27T22:19:34.950Z,13.27
2018-06-27T22:22:02.308Z,12.47
2018-06-27T22:24:29.663Z,13.50
2018-06-27T22:26:57.041Z,15.80
2018-06-27T22:29:24.434Z,14.67
2018-06-27T22:31:51.790Z,15.40
2018-06-27T22:34:19.155Z,14.93
2018-06-27T22:36:46.562Z,14.90
2018-06-27T22:39:13.987Z,14.93
2018-06-27T22:41:41.337Z,15.00
2018-06-27T22:44:08.641Z,16.47
2018-06-27T22:46:36.396Z,13.80
2018-06-27T22:49:03.861Z,14.93
2018-06-27T22:51:31.170Z,15.97
2018-06-27T22:53:58.582Z,13.23
2018-06-27T22:56:25.911Z,14.23
2018-06-27T22:58:53.243Z,15.00
2018-06-27T23:01:20.719Z,14.27
2018-06-27T23:03:48.720Z,16.40
2018-06-27T23:06:16.136Z,15.23
2018-06-27T23:08:44.032Z,14.73
2018-06-27T23:11:11.369Z,13.47
2018-06-27T23:13:38.882Z,14.10
2018-06-27T23:16:06.499Z,12.73
2018-06-27T23:18:33.873Z,11.87
2018-06-27T23:21:01.371Z,13.50
2018-06-27T23:23:28.725Z,13.57
2018-06-27T23:25:56.088Z,13.07
2018-06-27T23:28:23.413Z,14.83
2018-06-27T23:30:50.963Z,13.67
2018-06-27T23:33:18.364Z,13.37
2018-06-27T23:35:45.721Z,12.63
2018-06-27T23:38:13.073Z,12.33
2018-06-27T23:40:40.476Z,12.27
2018-06-27T23:43:08.309Z,13.83
2018-06-27T23:45:35.870Z,12.20
2018-06-27T23:48:03.817Z,10.50
2018-06-27T23:50:31.177Z,10.07
2018-06-27T23:52:58.513Z,9.83
2018-06-27T23:55:25.866Z,9.73
2018-06-27T23:57:53.233Z,7.57
